sensor_id;sensor_type;location;lat;lon;timestamp;pressure;altitude;pressure_sealevel;temperature;humidity
29903;BME280;30288;50.514;9.678;2023-05-02T00:00:14;98733.56;;;10.05;100.00
29903;BME280;30288;50.514;9.678;2023-05-02T00:02:19;98723.63;;;9.99;100.00
29903;BME280;30288;50.514;9.678;2023-05-02T00:04:25;98726.13;;;10.00;100.00
29903;BME280;30288;50.514;9.678;2023-05-02T00:06:30;98720.34;;;9.97;100.00
29903;BME280;30288;50.514;9.678;2023-05-02T00:08:36;98723.72;;;9.96;100.00
29903;BME280;30288;50.514;9.678;2023-05-02T00:10:42;98716.78;;;10.04;100.00
29903;BME280;30288;50.514;9.678;2023-05-02T00:12:47;98715.22;;;10.00;100.00
29903;BME280;30288;50.514;9.678;2023-05-02T00:14:52;98715.22;;;10.00;100.00
29903;BME280;30288;50.514;9.678;2023-05-02T00:17:00;98709.97;;;10.09;100.00
29903;BME280;30288;50.514;9.678;2023-05-02T00:19:06;98712.44;;;10.10;100.00
29903;BME280;30288;50.514;9.678;2023-05-02T00:21:12;98716.06;;;10.00;100.00
29903;BME280;30288;50.514;9.678;2023-05-02T00:23:17;98718.06;;;9.88;100.00
29903;BME280;30288;50.514;9.678;2023-05-02T00:25:22;98717.28;;;9.86;100.00
29903;BME280;30288;50.514;9.678;2023-05-02T00:27:29;98715.47;;;9.91;100.00
29903;BME280;30288;50.514;9.678;2023-05-02T00:29:35;98712.97;;;9.89;100.00
29903;BME280;30288;50.514;9.678;2023-05-02T00:31:40;98710.44;;;9.91;100.00
29903;BME280;30288;50.514;9.678;2023-05-02T00:33:48;98710.41;;;9.92;100.00
29903;BME280;30288;50.514;9.678;2023-05-02T00:35:53;98710.34;;;9.94;100.00
29903;BME280;30288;50.514;9.678;2023-05-02T00:37:59;98713.75;;;9.93;100.00
29903;BME280;30288;50.514;9.678;2023-05-02T00:40:06;98718.78;;;9.93;100.00
29903;BME280;30288;50.514;9.678;2023-05-02T00:42:11;98717.13;;;9.92;100.00
29903;BME280;30288;50.514;9.678;2023-05-02T00:44:17;98715.47;;;9.91;100.00
29903;BME280;30288;50.514;9.678;2023-05-02T00:46:23;98713.81;;;9.90;100.00
29903;BME280;30288;50.514;9.678;2023-05-02T00:48:28;98714.72;;;9.87;100.00
29903;BME280;30288;50.514;9.678;2023-05-02T00:50:41;98717.97;;;9.91;100.00
29903;BME280;30288;50.514;9.678;2023-05-02T00:52:47;98718.94;;;9.87;100.00
29903;BME280;30288;50.514;9.678;2023-05-02T00:54:53;98722.44;;;9.80;100.00
29903;BME280;30288;50.514;9.678;2023-05-02T00:56:58;98724.25;;;9.75;100.00
29903;BME280;30288;50.514;9.678;2023-05-02T00:59:05;98722.75;;;9.68;100.00
29903;BME280;30288;50.514;9.678;2023-05-02T01:01:28;98727.94;;;9.61;100.00
29903;BME280;30288;50.514;9.678;2023-05-02T01:03:45;98719.63;;;9.59;100.00
29903;BME280;30288;50.514;9.678;2023-05-02T01:06:09;98728.78;;;9.60;100.00
29903;BME280;30288;50.514;9.678;2023-05-02T01:08:27;98732.19;;;9.59;100.00
29903;BME280;30288;50.514;9.678;2023-05-02T01:10:47;98737.34;;;9.55;100.00
29903;BME280;30288;50.514;9.678;2023-05-02T01:13:00;98731.69;;;9.45;100.00
29903;BME280;30288;50.514;9.678;2023-05-02T01:15:15;98731.97;;;9.33;100.00
29903;BME280;30288;50.514;9.678;2023-05-02T01:17:23;98732.09;;;9.27;100.00
29903;BME280;30288;50.514;9.678;2023-05-02T01:19:34;98733.97;;;9.19;100.00
29903;BME280;30288;50.514;9.678;2023-05-02T01:21:43;98741.59;;;9.14;100.00
29903;BME280;30288;50.514;9.678;2023-05-02T01:23:59;98742.63;;;9.06;100.00
29903;BME280;30288;50.514;9.678;2023-05-02T01:26:16;98742.75;;;9.00;100.00
29903;BME280;30288;50.514;9.678;2023-05-02T01:28:34;98743.03;;;8.88;100.00
29903;BME280;30288;50.514;9.678;2023-05-02T01:30:45;98744.81;;;8.83;100.00
29903;BME280;30288;50.514;9.678;2023-05-02T01:32:54;98739.72;;;8.84;100.00
29903;BME280;30288;50.514;9.678;2023-05-02T01:35:02;98741.38;;;8.85;100.00
29903;BME280;30288;50.514;9.678;2023-05-02T01:37:10;98738.31;;;8.72;100.00
29903;BME280;30288;50.514;9.678;2023-05-02T01:39:20;98742.66;;;8.64;100.00
29903;BME280;30288;50.514;9.678;2023-05-02T01:41:30;98754.56;;;8.55;100.00
29903;BME280;30288;50.514;9.678;2023-05-02T01:43:37;98749.75;;;8.46;100.00
29903;BME280;30288;50.514;9.678;2023-05-02T01:45:49;98751.38;;;8.47;100.00
29903;BME280;30288;50.514;9.678;2023-05-02T01:47:55;98757.97;;;8.52;100.00
29903;BME280;30288;50.514;9.678;2023-05-02T01:50:06;98758.81;;;8.51;100.00
29903;BME280;30288;50.514;9.678;2023-05-02T01:52:13;98766.31;;;8.53;100.00
29903;BME280;30288;50.514;9.678;2023-05-02T01:54:22;98763.97;;;8.45;100.00
29903;BME280;30288;50.514;9.678;2023-05-02T01:56:30;98767.16;;;8.53;100.00
29903;BME280;30288;50.514;9.678;2023-05-02T01:58:37;98772.16;;;8.53;100.00
29903;BME280;30288;50.514;9.678;2023-05-02T02:00:43;98768.81;;;8.54;100.00
29903;BME280;30288;50.514;9.678;2023-05-02T02:02:54;98772.94;;;8.57;100.00
29903;BME280;30288;50.514;9.678;2023-05-02T02:05:04;98775.50;;;8.55;100.00
29903;BME280;30288;50.514;9.678;2023-05-02T02:07:13;98780.50;;;8.55;100.00
29903;BME280;30288;50.514;9.678;2023-05-02T02:09:18;98778.88;;;8.51;100.00
29903;BME280;30288;50.514;9.678;2023-05-02T02:11:34;98780.38;;;8.61;100.00
29903;BME280;30288;50.514;9.678;2023-05-02T02:13:44;98780.34;;;8.63;100.00
29903;BME280;30288;50.514;9.678;2023-05-02T02:15:58;98782.03;;;8.62;100.00
29903;BME280;30288;50.514;9.678;2023-05-02T02:18:12;98781.84;;;8.71;100.00
29903;BME280;30288;50.514;9.678;2023-05-02T02:20:19;98776.81;;;8.71;100.00
29903;BME280;30288;50.514;9.678;2023-05-02T02:22:27;98783.88;;;8.54;100.00
29903;BME280;30288;50.514;9.678;2023-05-02T02:24:35;98783.81;;;8.57;100.00
29903;BME280;30288;50.514;9.678;2023-05-02T02:26:43;98788.75;;;8.60;100.00
29903;BME280;30288;50.514;9.678;2023-05-02T02:28:48;98787.81;;;8.66;100.00
29903;BME280;30288;50.514;9.678;2023-05-02T02:30:55;98791.16;;;8.65;100.00
29903;BME280;30288;50.514;9.678;2023-05-02T02:33:00;98792.84;;;8.66;100.00
29903;BME280;30288;50.514;9.678;2023-05-02T02:35:09;98795.41;;;8.63;100.00
29903;BME280;30288;50.514;9.678;2023-05-02T02:37:18;98789.63;;;8.59;100.00
29903;BME280;30288;50.514;9.678;2023-05-02T02:39:38;98794.59;;;8.61;100.00
29903;BME280;30288;50.514;9.678;2023-05-02T02:41:59;98796.25;;;8.62;100.00
29903;BME280;30288;50.514;9.678;2023-05-02T02:44:20;98798.78;;;8.60;100.00
29903;BME280;30288;50.514;9.678;2023-05-02T02:46:37;98793.66;;;8.66;100.00
29903;BME280;30288;50.514;9.678;2023-05-02T02:48:52;98791.13;;;8.68;100.00
29903;BME280;30288;50.514;9.678;2023-05-02T02:51:10;98791.97;;;8.68;100.00
29903;BME280;30288;50.514;9.678;2023-05-02T02:53:23;98790.41;;;8.61;100.00
29903;BME280;30288;50.514;9.678;2023-05-02T02:55:39;98798.97;;;8.51;100.00
29903;BME280;30288;50.514;9.678;2023-05-02T02:57:58;98798.22;;;8.46;100.00
29903;BME280;30288;50.514;9.678;2023-05-02T03:00:10;98802.41;;;8.47;100.00
29903;BME280;30288;50.514;9.678;2023-05-02T03:02:18;98809.13;;;8.45;100.00
29903;BME280;30288;50.514;9.678;2023-05-02T03:04:27;98805.88;;;8.40;100.00
29903;BME280;30288;50.514;9.678;2023-05-02T03:06:37;98812.53;;;8.41;100.00
29903;BME280;30288;50.514;9.678;2023-05-02T03:08:44;98816.69;;;8.42;100.00
29903;BME280;30288;50.514;9.678;2023-05-02T03:10:53;98823.47;;;8.37;100.00
29903;BME280;30288;50.514;9.678;2023-05-02T03:12:58;98817.72;;;8.32;100.00
29903;BME280;30288;50.514;9.678;2023-05-02T03:15:17;98818.72;;;8.22;100.00
29903;BME280;30288;50.514;9.678;2023-05-02T03:17:26;98823.09;;;8.11;100.00
29903;BME280;30288;50.514;9.678;2023-05-02T03:19:31;98824.94;;;8.00;100.00
29903;BME280;30288;50.514;9.678;2023-05-02T03:21:39;98828.41;;;7.93;100.00
29903;BME280;30288;50.514;9.678;2023-05-02T03:23:50;98829.41;;;7.82;100.00
29903;BME280;30288;50.514;9.678;2023-05-02T03:25:55;98835.41;;;7.72;100.00
29903;BME280;30288;50.514;9.678;2023-05-02T03:28:01;98838.81;;;7.65;100.00
29903;BME280;30288;50.514;9.678;2023-05-02T03:30:08;98838.94;;;7.59;100.00
29903;BME280;30288;50.514;9.678;2023-05-02T03:32:13;98829.75;;;7.58;100.00
29903;BME280;30288;50.514;9.678;2023-05-02T03:34:19;98827.19;;;7.61;100.00
29903;BME280;30288;50.514;9.678;2023-05-02T03:36:26;98825.66;;;7.54;100.00
29903;BME280;30288;50.514;9.678;2023-05-02T03:38:33;98834.13;;;7.44;100.00
29903;BME280;30288;50.514;9.678;2023-05-02T03:40:42;98837.59;;;7.35;100.00
29903;BME280;30288;50.514;9.678;2023-05-02T03:42:48;98837.59;;;7.34;100.00
29903;BME280;30288;50.514;9.678;2023-05-02T03:45:02;98839.34;;;7.29;100.00
29903;BME280;30288;50.514;9.678;2023-05-02T03:47:07;98837.78;;;7.22;100.00
29903;BME280;30288;50.514;9.678;2023-05-02T03:49:16;98848.75;;;7.12;100.00
29903;BME280;30288;50.514;9.678;2023-05-02T03:51:23;98854.66;;;7.04;100.00
29903;BME280;30288;50.514;9.678;2023-05-02T03:53:34;98856.28;;;7.12;100.00
29903;BME280;30288;50.514;9.678;2023-05-02T03:55:40;98856.09;;;7.24;100.00
29903;BME280;30288;50.514;9.678;2023-05-02T03:57:52;98857.59;;;7.37;100.00
29903;BME280;30288;50.514;9.678;2023-05-02T03:59:57;98869.25;;;7.41;100.00
29903;BME280;30288;50.514;9.678;2023-05-02T04:02:12;98861.69;;;7.44;100.00
29903;BME280;30288;50.514;9.678;2023-05-02T04:04:22;98864.06;;;7.53;100.00
29903;BME280;30288;50.514;9.678;2023-05-02T04:06:29;98872.41;;;7.55;100.00
29903;BME280;30288;50.514;9.678;2023-05-02T04:08:40;98869.00;;;7.59;100.00
29903;BME280;30288;50.514;9.678;2023-05-02T04:10:46;98878.91;;;7.68;100.00
29903;BME280;30288;50.514;9.678;2023-05-02T04:12:51;98882.97;;;7.77;100.00
29903;BME280;30288;50.514;9.678;2023-05-02T04:14:57;98882.97;;;7.77;100.00
29903;BME280;30288;50.514;9.678;2023-05-02T04:17:04;98885.31;;;7.87;100.00
29903;BME280;30288;50.514;9.678;2023-05-02T04:19:17;98885.13;;;8.00;100.00
29903;BME280;30288;50.514;9.678;2023-05-02T04:21:23;98900.03;;;8.09;100.00
29903;BME280;30288;50.514;9.678;2023-05-02T04:23:29;98902.56;;;8.07;100.00
29903;BME280;30288;50.514;9.678;2023-05-02T04:25:39;98902.56;;;8.07;100.00
29903;BME280;30288;50.514;9.678;2023-05-02T04:27:44;98905.00;;;8.12;100.00
29903;BME280;30288;50.514;9.678;2023-05-02T04:29:53;98905.03;;;8.10;100.00
29903;BME280;30288;50.514;9.678;2023-05-02T04:31:59;98905.00;;;8.12;100.00
29903;BME280;30288;50.514;9.678;2023-05-02T04:34:06;98913.31;;;8.14;100.00
29903;BME280;30288;50.514;9.678;2023-05-02T04:36:16;98926.63;;;8.19;100.00
29903;BME280;30288;50.514;9.678;2023-05-02T04:38:22;98919.91;;;8.21;100.00
29903;BME280;30288;50.514;9.678;2023-05-02T04:40:28;98919.81;;;8.27;100.00
29903;BME280;30288;50.514;9.678;2023-05-02T04:42:40;98939.06;;;8.26;100.00
29903;BME280;30288;50.514;9.678;2023-05-02T04:44:51;98933.94;;;8.36;100.00
29903;BME280;30288;50.514;9.678;2023-05-02T04:46:56;98936.38;;;8.40;100.00
29903;BME280;30288;50.514;9.678;2023-05-02T04:49:02;98940.53;;;8.41;100.00
29903;BME280;30288;50.514;9.678;2023-05-02T04:51:07;98936.91;;;8.57;100.00
29903;BME280;30288;50.514;9.678;2023-05-02T04:53:16;98943.38;;;8.70;100.00
29903;BME280;30288;50.514;9.678;2023-05-02T04:55:22;98944.13;;;8.75;100.00
29903;BME280;30288;50.514;9.678;2023-05-02T04:57:27;98940.78;;;8.76;100.00
29903;BME280;30288;50.514;9.678;2023-05-02T04:59:37;98952.25;;;8.90;100.00
29903;BME280;30288;50.514;9.678;2023-05-02T05:01:43;98955.47;;;8.98;100.00
29903;BME280;30288;50.514;9.678;2023-05-02T05:03:49;98954.47;;;9.06;100.00
29903;BME280;30288;50.514;9.678;2023-05-02T05:05:54;98958.56;;;9.12;100.00
29903;BME280;30288;50.514;9.678;2023-05-02T05:08:00;98970.97;;;9.19;100.00
29903;BME280;30288;50.514;9.678;2023-05-02T05:10:09;98964.91;;;9.31;100.00
29903;BME280;30288;50.514;9.678;2023-05-02T05:12:19;98969.69;;;9.43;100.00
29903;BME280;30288;50.514;9.678;2023-05-02T05:14:25;98964.72;;;9.40;100.00
29903;BME280;30288;50.514;9.678;2023-05-02T05:16:33;98971.09;;;9.56;100.00
29903;BME280;30288;50.514;9.678;2023-05-02T05:18:39;98975.69;;;9.78;100.00
29903;BME280;30288;50.514;9.678;2023-05-02T05:20:46;98982.31;;;9.82;100.00
29903;BME280;30288;50.514;9.678;2023-05-02T05:22:52;98983.06;;;9.85;100.00
29903;BME280;30288;50.514;9.678;2023-05-02T05:24:58;98992.06;;;9.97;100.00
29903;BME280;30288;50.514;9.678;2023-05-02T05:27:06;98995.22;;;10.05;100.00
29903;BME280;30288;50.514;9.678;2023-05-02T05:29:11;99001.72;;;10.15;100.00
29903;BME280;30288;50.514;9.678;2023-05-02T05:31:18;99008.31;;;10.22;100.00
29903;BME280;30288;50.514;9.678;2023-05-02T05:33:32;99008.03;;;10.34;100.00
29903;BME280;30288;50.514;9.678;2023-05-02T05:35:38;99013.00;;;10.37;100.00
29903;BME280;30288;50.514;9.678;2023-05-02T05:37:43;99014.63;;;10.40;100.00
29903;BME280;30288;50.514;9.678;2023-05-02T05:39:51;99021.16;;;10.48;100.00
29903;BME280;30288;50.514;9.678;2023-05-02T05:41:56;99024.31;;;10.57;100.00
29903;BME280;30288;50.514;9.678;2023-05-02T05:44:04;99021.63;;;10.64;100.00
29903;BME280;30288;50.514;9.678;2023-05-02T05:46:09;99025.66;;;10.70;100.00
29903;BME280;30288;50.514;9.678;2023-05-02T05:48:15;99029.78;;;10.74;100.00
29903;BME280;30288;50.514;9.678;2023-05-02T05:50:23;99027.94;;;10.80;100.00
29903;BME280;30288;50.514;9.678;2023-05-02T05:52:28;99033.66;;;10.87;100.00
29903;BME280;30288;50.514;9.678;2023-05-02T05:54:35;99035.81;;;11.02;100.00
29903;BME280;30288;50.514;9.678;2023-05-02T05:56:40;99032.28;;;11.08;100.00
29903;BME280;30288;50.514;9.678;2023-05-02T05:58:49;99036.06;;;11.25;100.00
29903;BME280;30288;50.514;9.678;2023-05-02T06:00:56;99037.31;;;11.41;100.00
29903;BME280;30288;50.514;9.678;2023-05-02T06:03:01;99042.03;;;11.54;100.00
29903;BME280;30288;50.514;9.678;2023-05-02T06:05:10;99043.44;;;11.64;100.00
29903;BME280;30288;50.514;9.678;2023-05-02T06:07:19;99036.66;;;11.66;100.00
29903;BME280;30288;50.514;9.678;2023-05-02T06:09:25;99050.94;;;11.65;100.00
29903;BME280;30288;50.514;9.678;2023-05-02T06:11:30;99050.69;;;11.76;100.00
29903;BME280;30288;50.514;9.678;2023-05-02T06:13:35;99051.28;;;11.86;100.00
29903;BME280;30288;50.514;9.678;2023-05-02T06:15:42;99051.56;;;12.04;100.00
29903;BME280;30288;50.514;9.678;2023-05-02T06:17:49;99055.38;;;12.17;100.00
29903;BME280;30288;50.514;9.678;2023-05-02T06:19:54;99049.25;;;12.54;100.00
29903;BME280;30288;50.514;9.678;2023-05-02T06:21:59;99052.84;;;12.47;100.00
29903;BME280;30288;50.514;9.678;2023-05-02T06:24:08;99046.44;;;12.63;100.00
29903;BME280;30288;50.514;9.678;2023-05-02T06:26:13;99049.59;;;12.69;100.00
29903;BME280;30288;50.514;9.678;2023-05-02T06:28:18;99054.28;;;12.82;100.00
29903;BME280;30288;50.514;9.678;2023-05-02T06:30:23;99059.66;;;12.97;100.00
29903;BME280;30288;50.514;9.678;2023-05-02T06:32:29;99061.00;;;13.07;100.00
29903;BME280;30288;50.514;9.678;2023-05-02T06:34:35;99060.13;;;13.35;100.00
29903;BME280;30288;50.514;9.678;2023-05-02T06:36:40;99057.50;;;13.38;100.00
29903;BME280;30288;50.514;9.678;2023-05-02T06:38:45;99064.03;;;13.19;100.00
29903;BME280;30288;50.514;9.678;2023-05-02T06:40:54;99058.38;;;13.37;100.00
29903;BME280;30288;50.514;9.678;2023-05-02T06:42:59;99070.34;;;13.32;100.00
29903;BME280;30288;50.514;9.678;2023-05-02T06:45:06;99068.69;;;13.55;100.00
29903;BME280;30288;50.514;9.678;2023-05-02T06:47:11;99066.31;;;13.51;100.00
29903;BME280;30288;50.514;9.678;2023-05-02T06:49:16;99068.69;;;13.55;100.00
29903;BME280;30288;50.514;9.678;2023-05-02T06:51:22;99080.47;;;13.56;100.00
29903;BME280;30288;50.514;9.678;2023-05-02T06:53:27;99077.78;;;13.36;100.00
29903;BME280;30288;50.514;9.678;2023-05-02T06:55:34;99074.88;;;13.22;100.00
29903;BME280;30288;50.514;9.678;2023-05-02T06:57:41;99080.97;;;13.17;100.00
29903;BME280;30288;50.514;9.678;2023-05-02T06:59:47;99082.63;;;13.18;100.00
29903;BME280;30288;50.514;9.678;2023-05-02T07:01:52;99089.03;;;13.28;100.00
29903;BME280;30288;50.514;9.678;2023-05-02T07:03:58;99088.72;;;13.37;100.00
29903;BME280;30288;50.514;9.678;2023-05-02T07:06:05;99095.25;;;13.44;100.00
29903;BME280;30288;50.514;9.678;2023-05-02T07:08:10;99091.22;;;13.63;100.00
29903;BME280;30288;50.514;9.678;2023-05-02T07:10:15;99102.00;;;13.68;100.00
29903;BME280;30288;50.514;9.678;2023-05-02T07:12:20;99105.31;;;13.93;100.00
29903;BME280;30288;50.514;9.678;2023-05-02T07:14:28;99105.63;;;14.31;100.00
29903;BME280;30288;50.514;9.678;2023-05-02T07:16:33;99100.25;;;14.40;100.00
29903;BME280;30288;50.514;9.678;2023-05-02T07:18:38;99100.69;;;14.51;100.00
29903;BME280;30288;50.514;9.678;2023-05-02T07:20:43;99104.28;;;14.89;100.00
29903;BME280;30288;50.514;9.678;2023-05-02T07:22:49;99108.06;;;15.01;100.00
29903;BME280;30288;50.514;9.678;2023-05-02T07:25:00;99104.53;;;15.25;100.00
29903;BME280;30288;50.514;9.678;2023-05-02T07:27:05;99112.75;;;15.91;100.00
29903;BME280;30288;50.514;9.678;2023-05-02T07:29:10;99102.41;;;16.14;100.00
29903;BME280;30288;50.514;9.678;2023-05-02T07:31:18;99111.28;;;16.05;100.00
29903;BME280;30288;50.514;9.678;2023-05-02T07:33:23;99109.72;;;16.01;100.00
29903;BME280;30288;50.514;9.678;2023-05-02T07:35:28;99105.41;;;15.64;100.00
29903;BME280;30288;50.514;9.678;2023-05-02T07:37:34;99109.28;;;15.32;100.00
29903;BME280;30288;50.514;9.678;2023-05-02T07:39:39;99111.69;;;15.15;100.00
29903;BME280;30288;50.514;9.678;2023-05-02T07:41:44;99112.06;;;14.84;100.00
29903;BME280;30288;50.514;9.678;2023-05-02T07:43:50;99112.06;;;14.84;100.00
29903;BME280;30288;50.514;9.678;2023-05-02T07:45:55;99117.25;;;14.81;100.00
29903;BME280;30288;50.514;9.678;2023-05-02T07:48:03;99122.44;;;14.78;100.00
29903;BME280;30288;50.514;9.678;2023-05-02T07:50:10;99122.25;;;14.83;100.00
29903;BME280;30288;50.514;9.678;2023-05-02T07:52:15;99123.88;;;14.85;100.00
29903;BME280;30288;50.514;9.678;2023-05-02T07:54:21;99125.88;;;14.77;100.00
29903;BME280;30288;50.514;9.678;2023-05-02T07:56:28;99117.94;;;15.07;100.00
29903;BME280;30288;50.514;9.678;2023-05-02T07:58:34;99121.38;;;15.06;100.00
29903;BME280;30288;50.514;9.678;2023-05-02T08:00:40;99124.03;;;14.81;100.00
29903;BME280;30288;50.514;9.678;2023-05-02T08:02:45;99125.63;;;14.83;100.00
29903;BME280;30288;50.514;9.678;2023-05-02T08:04:52;99125.72;;;15.02;100.00
29903;BME280;30288;50.514;9.678;2023-05-02T08:06:57;99131.94;;;14.73;100.00
29903;BME280;30288;50.514;9.678;2023-05-02T08:09:03;99133.66;;;14.95;100.00
29903;BME280;30288;50.514;9.678;2023-05-02T08:11:08;99140.97;;;14.80;100.00
29903;BME280;30288;50.514;9.678;2023-05-02T08:13:13;99147.56;;;14.84;100.00
29903;BME280;30288;50.514;9.678;2023-05-02T08:15:18;99144.84;;;15.11;100.00
29903;BME280;30288;50.514;9.678;2023-05-02T08:17:23;99146.47;;;15.12;100.00
29903;BME280;30288;50.514;9.678;2023-05-02T08:19:30;99146.84;;;15.03;100.00
29903;BME280;30288;50.514;9.678;2023-05-02T08:21:37;99153.16;;;14.93;100.00
29903;BME280;30288;50.514;9.678;2023-05-02T08:23:42;99147.56;;;14.84;100.00
29903;BME280;30288;50.514;9.678;2023-05-02T08:25:48;99162.56;;;14.91;100.00
29903;BME280;30288;50.514;9.678;2023-05-02T08:27:53;99164.00;;;14.74;100.00
29903;BME280;30288;50.514;9.678;2023-05-02T08:29:58;99161.47;;;14.74;100.00
29903;BME280;30288;50.514;9.678;2023-05-02T08:32:04;99166.25;;;14.60;100.00
29903;BME280;30288;50.514;9.678;2023-05-02T08:34:09;99165.75;;;14.51;100.00
29903;BME280;30288;50.514;9.678;2023-05-02T08:36:16;99168.91;;;14.57;100.00
29903;BME280;30288;50.514;9.678;2023-05-02T08:38:24;99175.72;;;14.55;100.00
29903;BME280;30288;50.514;9.678;2023-05-02T08:40:33;99181.00;;;14.72;100.00
29903;BME280;30288;50.514;9.678;2023-05-02T08:42:44;99180.34;;;14.67;100.00
29903;BME280;30288;50.514;9.678;2023-05-02T08:44:49;99178.34;;;14.75;100.00
29903;BME280;30288;50.514;9.678;2023-05-02T08:46:55;99182.53;;;14.76;100.00
29903;BME280;30288;50.514;9.678;2023-05-02T08:49:02;99186.38;;;15.08;100.00
29903;BME280;30288;50.514;9.678;2023-05-02T08:51:09;99180.00;;;15.20;100.00
29903;BME280;30288;50.514;9.678;2023-05-02T08:53:16;99189.50;;;15.15;100.00
29903;BME280;30288;50.514;9.678;2023-05-02T08:55:25;99185.66;;;15.26;100.00
29903;BME280;30288;50.514;9.678;2023-05-02T08:57:30;99186.28;;;15.31;100.00
29903;BME280;30288;50.514;9.678;2023-05-02T08:59:35;99187.06;;;15.33;100.00
29903;BME280;30288;50.514;9.678;2023-05-02T09:01:44;99187.91;;;15.34;100.00
29903;BME280;30288;50.514;9.678;2023-05-02T09:03:50;99191.81;;;15.41;100.00
29903;BME280;30288;50.514;9.678;2023-05-02T09:06:05;99190.59;;;15.51;100.00
29903;BME280;30288;50.514;9.678;2023-05-02T09:08:11;99195.31;;;15.60;100.00
29903;BME280;30288;50.514;9.678;2023-05-02T09:10:18;99196.44;;;15.73;100.00
29903;BME280;30288;50.514;9.678;2023-05-02T09:12:26;99197.47;;;15.90;100.00
29903;BME280;30288;50.514;9.678;2023-05-02T09:14:32;99199.84;;;16.13;100.00
29903;BME280;30288;50.514;9.678;2023-05-02T09:16:38;99196.84;;;16.63;100.00
29903;BME280;30288;50.514;9.678;2023-05-02T09:18:46;99196.34;;;16.92;100.00
29903;BME280;30288;50.514;9.678;2023-05-02T09:20:51;99196.22;;;16.95;100.00
29903;BME280;30288;50.514;9.678;2023-05-02T09:22:57;99189.97;;;17.36;100.00
29903;BME280;30288;50.514;9.678;2023-05-02T09:25:02;99191.34;;;17.43;100.00
29903;BME280;30288;50.514;9.678;2023-05-02T09:27:08;99194.81;;;17.77;100.00
29903;BME280;30288;50.514;9.678;2023-05-02T09:29:19;99199.47;;;18.34;100.00
29903;BME280;30288;50.514;9.678;2023-05-02T09:31:25;99194.28;;;18.69;100.00
29903;BME280;30288;50.514;9.678;2023-05-02T09:33:52;99203.50;;;18.56;100.00
29903;BME280;30288;50.514;9.678;2023-05-02T09:35:58;99198.56;;;18.84;100.00
29903;BME280;30288;50.514;9.678;2023-05-02T09:38:03;99199.41;;;19.00;100.00
29903;BME280;30288;50.514;9.678;2023-05-02T09:40:10;99212.69;;;18.43;100.00
29903;BME280;30288;50.514;9.678;2023-05-02T09:42:30;99214.97;;;17.81;100.00
29903;BME280;30288;50.514;9.678;2023-05-02T09:44:38;99215.44;;;17.19;100.00
29903;BME280;30288;50.514;9.678;2023-05-02T09:46:46;99222.03;;;16.48;100.00
29903;BME280;30288;50.514;9.678;2023-05-02T09:48:53;99217.53;;;16.35;100.00
29903;BME280;30288;50.514;9.678;2023-05-02T09:50:59;99219.16;;;16.17;100.00
29903;BME280;30288;50.514;9.678;2023-05-02T09:53:07;99223.81;;;16.46;100.00
29903;BME280;30288;50.514;9.678;2023-05-02T09:55:19;99215.06;;;17.63;100.00
29903;BME280;30288;50.514;9.678;2023-05-02T09:57:39;99207.25;;;17.83;100.00
29903;BME280;30288;50.514;9.678;2023-05-02T09:59:56;99207.38;;;17.97;100.00
29903;BME280;30288;50.514;9.678;2023-05-02T10:02:03;99216.84;;;17.78;100.00
29903;BME280;30288;50.514;9.678;2023-05-02T10:04:12;99208.31;;;17.62;100.00
29903;BME280;30288;50.514;9.678;2023-05-02T10:06:20;99217.31;;;17.33;100.00
29903;BME280;30288;50.514;9.678;2023-05-02T10:08:27;99207.75;;;17.02;100.00
29903;BME280;30288;50.514;9.678;2023-05-02T10:10:34;99214.78;;;16.59;100.00
29903;BME280;30288;50.514;9.678;2023-05-02T10:12:40;99210.06;;;16.50;100.00
29903;BME280;30288;50.514;9.678;2023-05-02T10:14:49;99208.16;;;16.93;100.00
29903;BME280;30288;50.514;9.678;2023-05-02T10:17:07;99209.31;;;17.40;100.00
29903;BME280;30288;50.514;9.678;2023-05-02T10:19:22;99202.13;;;18.00;100.00
29903;BME280;30288;50.514;9.678;2023-05-02T10:21:27;99205.41;;;18.35;100.00
29903;BME280;30288;50.514;9.678;2023-05-02T10:23:34;99203.00;;;18.96;100.00
29903;BME280;30288;50.514;9.678;2023-05-02T10:25:39;99190.66;;;18.73;100.00
29903;BME280;30288;50.514;9.678;2023-05-02T10:27:45;99196.22;;;18.32;100.00
29903;BME280;30288;50.514;9.678;2023-05-02T10:29:51;99184.91;;;18.85;100.00
29903;BME280;30288;50.514;9.678;2023-05-02T10:31:58;99189.75;;;19.51;100.00
29903;BME280;30288;50.514;9.678;2023-05-02T10:34:09;99187.63;;;19.87;100.00
29903;BME280;30288;50.514;9.678;2023-05-02T10:36:14;99189.75;;;20.23;100.00
29903;BME280;30288;50.514;9.678;2023-05-02T10:38:24;99185.78;;;19.61;100.00
29903;BME280;30288;50.514;9.678;2023-05-02T10:40:30;99193.28;;;19.18;100.00
29903;BME280;30288;50.514;9.678;2023-05-02T10:42:37;99192.97;;;19.69;100.00
29903;BME280;30288;50.514;9.678;2023-05-02T10:44:44;99192.94;;;20.27;100.00
29903;BME280;30288;50.514;9.678;2023-05-02T10:46:50;99189.94;;;20.20;100.00
29903;BME280;30288;50.514;9.678;2023-05-02T10:49:07;99186.50;;;19.63;100.00
29903;BME280;30288;50.514;9.678;2023-05-02T10:51:27;99193.06;;;19.37;100.00
29903;BME280;30288;50.514;9.678;2023-05-02T10:53:34;99205.16;;;18.72;100.00
29903;BME280;30288;50.514;9.678;2023-05-02T10:55:40;99204.03;;;17.26;100.00
29903;BME280;30288;50.514;9.678;2023-05-02T10:58:19;99223.78;;;16.28;100.00
29903;BME280;30288;50.514;9.678;2023-05-02T11:00:27;99225.78;;;15.60;100.00
29903;BME280;30288;50.514;9.678;2023-05-02T11:02:48;99232.75;;;15.12;100.00
29903;BME280;30288;50.514;9.678;2023-05-02T11:05:04;99255.28;;;14.74;100.00
29903;BME280;30288;50.514;9.678;2023-05-02T11:07:17;99246.81;;;14.75;100.00
29903;BME280;30288;50.514;9.678;2023-05-02T11:09:31;99245.16;;;14.74;100.00
29903;BME280;30288;50.514;9.678;2023-05-02T11:11:40;99241.19;;;14.91;100.00
29903;BME280;30288;50.514;9.678;2023-05-02T11:13:49;99251.97;;;14.96;100.00